createdAt,value
2018-11-07T00:00:17.589Z,96711.00
2018-11-07T00:02:46.852Z,96702.00
2018-11-07T00:05:17.288Z,96701.00
2018-11-07T00:07:46.631Z,96704.00
2018-11-07T00:10:15.889Z,96705.00
2018-11-07T00:12:45.109Z,96708.00
2018-11-07T00:15:15.301Z,96709.00
2018-11-07T00:17:44.597Z,96706.00
2018-11-07T00:20:13.905Z,96707.00
2018-11-07T00:22:43.128Z,96702.00
2018-11-07T00:25:12.916Z,96701.00
2018-11-07T00:27:42.345Z,96705.00
2018-11-07T00:30:12.079Z,96718.00
2018-11-07T00:32:41.325Z,96699.00
2018-11-07T00:35:11.608Z,96699.00
2018-11-07T00:37:42.099Z,96715.00
2018-11-07T00:40:11.702Z,96709.00
2018-11-07T00:42:41.042Z,96701.00
2018-11-07T00:45:12.555Z,96698.00
2018-11-07T00:47:42.070Z,96707.00
2018-11-07T00:50:14.380Z,96702.00
2018-11-07T00:52:44.140Z,96700.00
2018-11-07T00:55:14.145Z,96705.00
2018-11-07T00:57:45.597Z,96707.00
2018-11-07T01:00:17.044Z,96705.00
2018-11-07T01:02:47.229Z,96707.00
2018-11-07T01:05:16.433Z,96703.00
2018-11-07T01:07:46.920Z,96702.00
2018-11-07T01:10:16.145Z,96704.00
2018-11-07T01:12:45.444Z,96726.00
2018-11-07T01:15:14.910Z,96702.00
2018-11-07T01:17:44.147Z,96707.00
2018-11-07T01:20:14.420Z,96704.00
2018-11-07T01:22:43.823Z,96720.00
2018-11-07T01:25:13.063Z,96718.00
2018-11-07T01:27:42.502Z,96743.00
2018-11-07T01:30:13.561Z,96719.00
2018-11-07T01:32:42.804Z,96719.00
2018-11-07T01:35:12.009Z,96732.00
2018-11-07T01:37:41.331Z,96732.00
2018-11-07T01:40:13.397Z,96730.00
2018-11-07T01:42:43.435Z,96734.00
2018-11-07T01:45:13.247Z,96736.00
2018-11-07T01:47:42.469Z,96735.00
2018-11-07T01:50:13.057Z,96735.00
2018-11-07T01:52:42.282Z,96731.00
2018-11-07T01:55:11.708Z,96717.00
2018-11-07T01:57:41.022Z,96725.00
2018-11-07T02:00:12.429Z,96714.00
2018-11-07T02:02:42.937Z,96724.00
2018-11-07T02:05:12.528Z,96724.00
2018-11-07T02:07:42.285Z,96728.00
2018-11-07T02:10:11.761Z,96730.00
2018-11-07T02:12:41.579Z,96728.00
2018-11-07T02:15:11.199Z,96744.00
2018-11-07T02:17:40.473Z,96736.00
2018-11-07T02:20:11.085Z,96750.00
2018-11-07T02:22:40.436Z,96733.00
2018-11-07T02:25:09.737Z,96747.00
2018-11-07T02:27:39.298Z,96735.00
2018-11-07T02:30:11.985Z,96734.00
2018-11-07T02:32:41.235Z,96741.00
2018-11-07T02:35:10.419Z,96739.00
2018-11-07T02:37:39.719Z,96742.00
2018-11-07T02:40:09.500Z,96726.00
2018-11-07T02:42:39.040Z,96739.00
2018-11-07T02:45:08.268Z,96731.00
2018-11-07T02:47:37.526Z,96742.00
2018-11-07T02:50:08.120Z,96732.00
2018-11-07T02:52:37.321Z,96740.00
2018-11-07T02:55:06.662Z,96742.00
2018-11-07T02:57:35.933Z,96727.00
2018-11-07T03:00:07.954Z,96740.00
2018-11-07T03:02:37.169Z,96743.00
2018-11-07T03:05:06.424Z,96742.00
2018-11-07T03:07:35.885Z,96733.00
2018-11-07T03:10:06.927Z,96750.00
2018-11-07T03:12:36.145Z,96745.00
2018-11-07T03:15:05.965Z,96749.00
2018-11-07T03:17:35.184Z,96746.00
2018-11-07T03:20:04.780Z,96736.00
2018-11-07T03:22:33.982Z,96734.00
2018-11-07T03:25:03.238Z,96747.00
2018-11-07T03:27:32.436Z,96746.00
2018-11-07T03:30:01.693Z,96757.00
2018-11-07T03:32:30.900Z,96748.00
2018-11-07T03:35:00.129Z,96767.00
2018-11-07T03:37:29.331Z,96767.00
2018-11-07T03:39:58.672Z,96754.00
2018-11-07T03:42:27.877Z,96762.00
2018-11-07T03:44:57.111Z,96761.00
2018-11-07T03:47:26.370Z,96764.00
2018-11-07T03:49:55.665Z,96759.00
2018-11-07T03:52:24.896Z,96756.00
2018-11-07T03:54:54.093Z,96765.00
2018-11-07T03:57:23.367Z,96760.00
2018-11-07T03:59:52.601Z,96770.00
2018-11-07T04:02:21.800Z,96771.00
2018-11-07T04:04:51.021Z,96776.00
2018-11-07T04:07:20.225Z,96767.00
2018-11-07T04:09:49.437Z,96776.00
2018-11-07T04:12:18.629Z,96774.00
2018-11-07T04:14:47.881Z,96780.00
2018-11-07T04:17:17.076Z,96780.00
2018-11-07T04:19:46.348Z,96764.00
2018-11-07T04:22:15.536Z,96767.00
2018-11-07T04:24:44.800Z,96783.00
2018-11-07T04:27:14.009Z,96776.00
2018-11-07T04:29:43.273Z,96772.00
2018-11-07T04:32:12.480Z,96765.00
2018-11-07T04:34:41.709Z,96759.00
2018-11-07T04:37:11.013Z,96774.00
2018-11-07T04:39:40.229Z,96773.00
2018-11-07T04:42:09.454Z,96766.00
2018-11-07T04:44:38.689Z,96776.00
2018-11-07T04:47:08.084Z,96781.00
2018-11-07T04:49:37.324Z,96785.00
2018-11-07T04:52:06.629Z,96785.00
2018-11-07T04:54:35.860Z,96786.00
2018-11-07T04:57:05.470Z,96783.00
2018-11-07T04:59:34.709Z,96779.00
2018-11-07T05:02:03.951Z,96775.00
2018-11-07T05:04:33.165Z,96783.00
2018-11-07T05:07:02.362Z,96794.00
2018-11-07T05:09:31.567Z,96799.00
2018-11-07T05:12:00.853Z,96790.00
2018-11-07T05:14:30.237Z,96785.00
2018-11-07T05:16:59.432Z,96787.00
2018-11-07T05:19:28.747Z,96787.00
2018-11-07T05:21:57.957Z,96782.00
2018-11-07T05:24:27.261Z,96781.00
2018-11-07T05:26:56.490Z,96798.00
2018-11-07T05:29:25.725Z,96785.00
2018-11-07T05:31:54.929Z,96806.00
2018-11-07T05:34:24.356Z,96796.00
2018-11-07T05:36:53.559Z,96808.00
2018-11-07T05:39:22.760Z,96792.00
2018-11-07T05:41:51.993Z,96801.00
2018-11-07T05:44:21.233Z,96810.00
2018-11-07T05:46:50.485Z,96807.00
2018-11-07T05:49:19.721Z,96818.00
2018-11-07T05:51:48.940Z,96810.00
2018-11-07T05:54:18.149Z,96802.00
2018-11-07T05:56:47.358Z,96800.00
2018-11-07T05:59:16.582Z,96814.00
2018-11-07T06:01:45.786Z,96814.00
2018-11-07T06:04:14.997Z,96810.00
2018-11-07T06:06:44.193Z,96821.00
2018-11-07T06:09:13.522Z,96818.00
2018-11-07T06:11:42.788Z,96837.00
2018-11-07T06:14:12.018Z,96820.00
2018-11-07T06:16:41.243Z,96819.00
2018-11-07T06:19:10.437Z,96815.00
2018-11-07T06:21:39.645Z,96833.00
2018-11-07T06:24:08.915Z,96830.00
2018-11-07T06:26:38.094Z,96833.00
2018-11-07T06:29:07.358Z,96831.00
2018-11-07T06:31:36.578Z,96839.00
2018-11-07T06:34:05.869Z,96842.00
2018-11-07T06:36:35.069Z,96838.00
2018-11-07T06:39:06.475Z,96829.00
2018-11-07T06:41:35.856Z,96843.00
2018-11-07T06:44:05.132Z,96851.00
2018-11-07T06:46:34.394Z,96859.00
2018-11-07T06:49:03.590Z,96853.00
2018-11-07T06:51:32.817Z,96855.00
2018-11-07T06:54:02.009Z,96862.00
2018-11-07T06:56:31.221Z,96856.00
2018-11-07T06:59:00.421Z,96855.00
2018-11-07T07:01:29.649Z,96859.00
2018-11-07T07:03:58.864Z,96849.00
2018-11-07T07:06:28.096Z,96852.00
2018-11-07T07:08:57.278Z,96864.00
2018-11-07T07:11:26.493Z,96862.00
2018-11-07T07:13:55.682Z,96865.00
2018-11-07T07:16:24.895Z,96860.00
2018-11-07T07:18:54.090Z,96866.00
2018-11-07T07:21:23.309Z,96860.00
2018-11-07T07:23:52.508Z,96862.00
2018-11-07T07:26:21.720Z,96858.00
2018-11-07T07:28:50.925Z,96871.00
2018-11-07T07:31:20.128Z,96870.00
2018-11-07T07:33:49.323Z,96867.00
2018-11-07T07:36:18.669Z,96871.00
2018-11-07T07:38:47.902Z,96881.00
2018-11-07T07:41:17.159Z,96872.00
2018-11-07T07:43:46.415Z,96873.00
2018-11-07T07:46:16.234Z,96872.00
2018-11-07T07:48:45.437Z,96871.00
2018-11-07T07:51:14.664Z,96874.00
2018-11-07T07:53:43.878Z,96883.00
2018-11-07T07:56:13.133Z,96880.00
2018-11-07T07:58:42.456Z,96881.00
2018-11-07T08:01:11.673Z,96885.00
2018-11-07T08:03:40.864Z,96866.00
2018-11-07T08:06:10.135Z,96890.00
2018-11-07T08:08:39.354Z,96884.00
2018-11-07T08:11:08.632Z,96878.00
2018-11-07T08:13:37.875Z,96888.00
2018-11-07T08:16:07.129Z,96881.00
2018-11-07T08:18:36.329Z,96892.00
2018-11-07T08:21:05.727Z,96902.00
2018-11-07T08:23:34.929Z,96889.00
2018-11-07T08:26:04.228Z,96892.00
2018-11-07T08:28:33.625Z,96888.00
2018-11-07T08:31:03.005Z,96882.00
2018-11-07T08:33:32.121Z,96894.00
2018-11-07T08:36:01.346Z,96893.00
2018-11-07T08:38:30.562Z,96892.00
2018-11-07T08:40:59.806Z,96884.00
2018-11-07T08:43:29.157Z,96891.00
2018-11-07T08:45:58.400Z,96886.00
2018-11-07T08:48:27.674Z,96883.00
2018-11-07T08:50:57.041Z,96884.00
2018-11-07T08:53:26.302Z,96895.00
2018-11-07T08:55:55.658Z,96891.00
2018-11-07T08:58:24.874Z,96881.00
2018-11-07T09:00:54.088Z,96887.00
2018-11-07T09:03:23.314Z,96882.00
2018-11-07T09:05:52.529Z,96886.00
2018-11-07T09:08:21.850Z,96883.00
2018-11-07T09:10:51.078Z,96895.00
2018-11-07T09:13:20.317Z,96892.00
2018-11-07T09:15:49.548Z,96899.00
2018-11-07T09:18:18.746Z,96901.00
2018-11-07T09:20:47.968Z,96895.00
2018-11-07T09:23:17.144Z,96890.00
2018-11-07T09:25:46.404Z,96895.00
2018-11-07T09:28:15.617Z,96893.00
2018-11-07T09:30:44.829Z,96895.00
2018-11-07T09:33:14.071Z,96913.00
2018-11-07T09:35:43.425Z,96910.00
2018-11-07T09:38:12.636Z,96920.00
2018-11-07T09:40:44.742Z,96914.00
2018-11-07T09:43:13.954Z,96917.00
2018-11-07T09:45:43.191Z,96912.00
2018-11-07T09:48:12.503Z,96915.00
2018-11-07T09:50:41.647Z,96930.00
2018-11-07T09:53:10.874Z,96929.00
2018-11-07T09:55:40.140Z,96946.00
2018-11-07T09:58:09.418Z,96928.00
2018-11-07T10:00:38.680Z,96929.00
2018-11-07T10:03:07.906Z,96926.00
2018-11-07T10:05:37.199Z,96929.00
2018-11-07T10:08:06.754Z,96932.00
2018-11-07T10:10:35.966Z,96928.00
2018-11-07T10:13:05.196Z,96935.00
2018-11-07T10:15:34.469Z,96940.00
2018-11-07T10:18:03.680Z,96930.00
2018-11-07T10:20:32.916Z,96934.00
2018-11-07T10:23:02.195Z,96933.00
2018-11-07T10:25:31.406Z,96925.00
2018-11-07T10:28:00.814Z,96933.00
2018-11-07T10:30:29.932Z,96926.00
2018-11-07T10:32:59.101Z,96918.00
2018-11-07T10:35:28.314Z,96923.00
2018-11-07T10:37:57.560Z,96917.00
2018-11-07T10:40:26.765Z,96919.00
2018-11-07T10:42:55.982Z,96917.00
2018-11-07T10:45:25.189Z,96909.00
2018-11-07T10:47:54.410Z,96907.00
2018-11-07T10:50:23.623Z,96919.00
2018-11-07T10:52:52.850Z,96917.00
2018-11-07T10:55:22.222Z,96915.00
2018-11-07T10:57:51.515Z,96920.00
2018-11-07T11:00:26.089Z,96914.00
2018-11-07T11:03:29.419Z,96907.00
2018-11-07T11:05:58.657Z,96910.00
2018-11-07T11:08:27.910Z,96921.00
2018-11-07T11:10:57.168Z,96909.00
2018-11-07T11:13:26.489Z,96914.00
2018-11-07T11:15:55.711Z,96915.00
2018-11-07T11:18:25.075Z,96919.00
2018-11-07T11:20:54.281Z,96909.00
2018-11-07T11:23:23.742Z,96929.00
2018-11-07T11:25:53.145Z,96923.00
2018-11-07T11:28:22.378Z,96932.00
2018-11-07T11:30:51.645Z,96930.00
2018-11-07T11:33:21.018Z,96929.00
2018-11-07T11:35:50.286Z,96925.00
2018-11-07T11:38:19.553Z,96911.00
2018-11-07T11:43:48.628Z,96914.00
2018-11-07T11:46:17.869Z,96913.00
2018-11-07T11:48:47.801Z,96915.00
2018-11-07T11:51:17.287Z,96925.00
2018-11-07T11:53:46.550Z,96922.00
2018-11-07T11:56:15.768Z,96910.00
2018-11-07T11:58:45.652Z,96919.00
2018-11-07T12:01:14.978Z,96910.00
2018-11-07T12:03:44.227Z,96911.00
2018-11-07T12:06:13.499Z,96920.00
2018-11-07T12:08:43.044Z,96914.00
2018-11-07T12:11:12.328Z,96916.00
2018-11-07T12:13:41.666Z,96909.00
2018-11-07T12:16:10.937Z,96904.00
2018-11-07T12:18:40.185Z,96917.00
2018-11-07T12:21:09.511Z,96914.00
2018-11-07T12:23:38.727Z,96918.00
2018-11-07T12:26:07.948Z,96915.00
2018-11-07T12:28:37.209Z,96910.00
2018-11-07T12:31:06.508Z,96919.00
2018-11-07T12:33:35.746Z,96922.00
2018-11-07T12:36:15.025Z,96933.00
2018-11-07T12:38:44.526Z,96920.00
2018-11-07T12:41:13.754Z,96912.00
2018-11-07T12:43:43.040Z,96910.00
2018-11-07T12:46:12.313Z,96913.00
2018-11-07T12:48:41.851Z,96918.00
2018-11-07T12:51:11.141Z,96900.00
2018-11-07T12:53:40.419Z,96914.00
2018-11-07T12:56:18.141Z,96904.00
2018-11-07T12:58:47.401Z,96909.00
2018-11-07T13:01:16.612Z,96914.00
2018-11-07T13:03:45.979Z,96888.00
2018-11-07T13:06:15.358Z,96910.00
2018-11-07T13:08:44.618Z,96915.00
2018-11-07T13:11:13.869Z,96911.00
2018-11-07T13:13:43.076Z,96915.00
2018-11-07T13:16:12.305Z,96919.00
2018-11-07T13:18:41.853Z,96922.00
2018-11-07T13:21:11.162Z,96912.00
2018-11-07T13:23:40.389Z,96916.00
2018-11-07T13:26:09.611Z,96917.00
2018-11-07T13:28:38.906Z,96921.00
2018-11-07T13:31:08.167Z,96927.00
2018-11-07T13:33:37.463Z,96928.00
2018-11-07T13:36:06.786Z,96923.00
2018-11-07T13:38:36.374Z,96921.00
2018-11-07T13:41:05.872Z,96909.00
2018-11-07T13:43:35.074Z,96915.00
2018-11-07T13:46:04.457Z,96919.00
2018-11-07T13:48:33.598Z,96917.00
2018-11-07T13:51:02.852Z,96923.00
2018-11-07T13:53:32.082Z,96917.00
2018-11-07T13:56:01.314Z,96920.00
2018-11-07T13:58:30.555Z,96923.00
2018-11-07T14:00:59.829Z,96922.00
2018-11-07T14:03:29.110Z,96914.00
2018-11-07T14:05:58.338Z,96910.00
2018-11-07T14:08:27.657Z,96905.00
2018-11-07T14:10:56.874Z,96906.00
2018-11-07T14:13:26.501Z,96918.00
2018-11-07T14:15:55.827Z,96915.00
2018-11-07T14:18:25.106Z,96923.00
2018-11-07T14:20:54.324Z,96922.00
2018-11-07T14:23:23.541Z,96920.00
2018-11-07T14:25:52.761Z,96923.00
2018-11-07T14:28:22.212Z,96931.00
2018-11-07T14:30:51.263Z,96922.00
2018-11-07T14:33:20.518Z,96924.00
2018-11-07T14:35:49.714Z,96935.00
2018-11-07T14:38:18.996Z,96929.00
2018-11-07T14:40:48.216Z,96925.00
2018-11-07T14:43:17.473Z,96923.00
2018-11-07T14:45:46.756Z,96917.00
2018-11-07T14:48:15.966Z,96915.00
2018-11-07T14:50:45.181Z,96912.00
2018-11-07T14:53:14.382Z,96917.00
2018-11-07T14:55:43.617Z,96920.00
2018-11-07T14:58:12.842Z,96907.00
2018-11-07T15:00:42.082Z,96907.00
2018-11-07T15:03:11.483Z,96909.00
2018-11-07T15:05:40.791Z,96913.00
2018-11-07T15:08:10.029Z,96920.00
2018-11-07T15:10:39.427Z,96879.00
2018-11-07T15:13:08.858Z,96907.00
2018-11-07T15:15:38.295Z,96913.00
2018-11-07T15:18:08.526Z,96915.00
2018-11-07T15:20:37.778Z,96914.00
2018-11-07T15:23:07.053Z,96923.00
2018-11-07T15:25:36.285Z,96936.00
2018-11-07T15:28:05.645Z,96925.00
2018-11-07T15:30:34.905Z,96930.00
2018-11-07T15:33:04.121Z,96926.00
2018-11-07T15:35:33.401Z,96931.00
2018-11-07T15:38:02.621Z,96930.00
2018-11-07T15:40:31.858Z,96945.00
2018-11-07T15:43:01.126Z,96925.00
2018-11-07T15:45:30.372Z,96936.00
2018-11-07T15:47:59.587Z,96920.00
2018-11-07T15:50:34.172Z,96927.00
2018-11-07T15:53:03.382Z,96930.00
2018-11-07T15:55:32.608Z,96939.00
2018-11-07T15:58:01.806Z,96935.00
2018-11-07T16:00:31.019Z,96944.00
2018-11-07T16:03:00.287Z,96945.00
2018-11-07T16:05:29.729Z,96951.00
2018-11-07T16:07:59.781Z,96960.00
2018-11-07T16:10:29.154Z,96948.00
2018-11-07T16:12:58.627Z,96950.00
2018-11-07T16:15:27.982Z,96949.00
2018-11-07T16:17:57.754Z,96956.00
2018-11-07T16:20:26.994Z,96960.00
2018-11-07T16:22:56.321Z,96965.00
2018-11-07T16:25:25.493Z,96961.00
2018-11-07T16:27:54.732Z,96961.00
2018-11-07T16:30:23.989Z,96973.00
2018-11-07T16:32:53.257Z,96968.00
2018-11-07T16:35:22.554Z,96970.00
2018-11-07T16:37:51.844Z,96985.00
2018-11-07T16:40:21.065Z,96980.00
2018-11-07T16:42:50.284Z,96982.00
2018-11-07T16:45:19.563Z,96986.00
2018-11-07T16:47:48.900Z,96980.00
2018-11-07T16:50:18.613Z,96982.00
2018-11-07T16:52:47.863Z,96984.00
2018-11-07T16:55:17.240Z,96969.00
2018-11-07T16:57:46.452Z,96985.00
2018-11-07T17:00:16.980Z,96987.00
2018-11-07T17:02:46.577Z,96983.00
2018-11-07T17:05:16.319Z,97002.00
2018-11-07T17:07:45.761Z,96984.00
2018-11-07T17:10:15.165Z,96993.00
2018-11-07T17:12:44.517Z,96998.00
2018-11-07T17:15:13.789Z,96998.00
2018-11-07T17:17:43.044Z,97007.00
2018-11-07T17:20:14.344Z,96998.00
2018-11-07T17:22:43.911Z,97008.00
2018-11-07T17:25:16.503Z,97019.00
2018-11-07T17:27:45.844Z,97026.00
2018-11-07T17:30:16.149Z,97014.00
2018-11-07T17:32:45.381Z,97017.00
2018-11-07T17:35:15.893Z,97019.00
2018-11-07T17:37:45.544Z,97031.00
2018-11-07T17:40:21.669Z,97023.00
2018-11-07T17:42:51.341Z,97030.00
2018-11-07T17:45:22.067Z,97022.00
2018-11-07T17:47:52.145Z,97031.00
2018-11-07T17:50:22.086Z,97037.00
2018-11-07T17:52:51.892Z,97024.00
2018-11-07T17:55:21.813Z,97023.00
2018-11-07T17:57:51.069Z,97017.00
2018-11-07T18:00:21.645Z,97021.00
2018-11-07T18:02:50.861Z,97015.00
2018-11-07T18:05:20.091Z,97026.00
2018-11-07T18:07:49.309Z,97033.00
2018-11-07T18:10:19.148Z,97018.00
2018-11-07T18:12:48.413Z,97020.00
2018-11-07T18:15:17.644Z,97026.00
2018-11-07T18:17:46.864Z,97025.00
2018-11-07T18:20:16.969Z,97022.00
2018-11-07T18:22:46.195Z,97027.00
2018-11-07T18:25:16.286Z,97029.00
2018-11-07T18:27:45.489Z,97038.00
2018-11-07T18:30:15.901Z,97043.00
2018-11-07T18:32:45.949Z,97040.00
2018-11-07T18:35:16.892Z,97044.00
2018-11-07T18:37:46.558Z,97056.00
2018-11-07T18:40:18.208Z,97055.00
2018-11-07T18:42:47.636Z,97057.00
2018-11-07T18:45:16.994Z,97066.00
2018-11-07T18:47:47.045Z,97075.00
2018-11-07T18:50:17.870Z,97069.00
2018-11-07T18:52:47.042Z,97072.00
2018-11-07T18:55:17.202Z,97070.00
2018-11-07T18:57:46.875Z,97085.00
2018-11-07T19:00:17.968Z,97083.00
2018-11-07T19:02:47.833Z,97082.00
2018-11-07T19:05:19.542Z,97083.00
2018-11-07T19:07:49.164Z,97096.00
2018-11-07T19:10:20.064Z,97093.00
2018-11-07T19:12:49.851Z,97099.00
2018-11-07T19:15:19.457Z,97097.00
2018-11-07T19:17:49.694Z,97109.00
2018-11-07T19:20:19.383Z,97117.00
2018-11-07T19:22:49.677Z,97112.00
2018-11-07T19:25:20.548Z,97104.00
2018-11-07T19:27:50.034Z,97107.00
2018-11-07T19:30:20.746Z,97107.00
2018-11-07T19:32:51.311Z,97123.00
2018-11-07T19:35:21.066Z,97119.00
2018-11-07T19:37:51.278Z,97110.00
2018-11-07T19:40:24.884Z,97118.00
2018-11-07T19:42:53.988Z,97125.00
2018-11-07T19:45:23.793Z,97133.00
2018-11-07T19:47:53.043Z,97133.00
2018-11-07T19:50:23.011Z,97132.00
2018-11-07T19:52:52.716Z,97138.00
2018-11-07T19:55:23.569Z,97135.00
2018-11-07T19:57:58.249Z,97140.00
2018-11-07T20:00:27.581Z,97141.00
2018-11-07T20:02:56.805Z,97146.00
2018-11-07T20:05:26.029Z,97156.00
2018-11-07T20:07:55.299Z,97146.00
2018-11-07T20:10:24.608Z,97160.00
2018-11-07T20:12:53.804Z,97157.00
2018-11-07T20:15:23.073Z,97163.00
2018-11-07T20:17:52.330Z,97170.00
2018-11-07T20:20:22.350Z,97165.00
2018-11-07T20:22:51.693Z,97176.00
2018-11-07T20:25:20.797Z,97184.00
2018-11-07T20:27:50.104Z,97188.00
2018-11-07T20:30:20.400Z,97197.00
2018-11-07T20:33:09.172Z,97184.00
2018-11-07T20:35:38.430Z,97189.00
2018-11-07T20:38:07.669Z,97191.00
2018-11-07T20:40:36.889Z,97192.00
2018-11-07T20:43:06.762Z,97199.00
2018-11-07T20:45:35.998Z,97208.00
2018-11-07T20:48:05.275Z,97190.00
2018-11-07T20:50:34.492Z,97196.00
2018-11-07T20:53:03.735Z,97190.00
2018-11-07T20:55:33.030Z,97200.00
2018-11-07T20:58:02.284Z,97204.00
2018-11-07T21:00:31.469Z,97196.00
2018-11-07T21:03:00.690Z,97190.00
2018-11-07T21:05:29.949Z,97192.00
2018-11-07T21:07:59.190Z,97192.00
2018-11-07T21:10:28.397Z,97197.00
2018-11-07T21:12:57.612Z,97204.00
2018-11-07T21:15:26.813Z,97211.00
2018-11-07T21:17:56.062Z,97211.00
2018-11-07T21:20:25.261Z,97222.00
2018-11-07T21:22:54.473Z,97217.00
2018-11-07T21:25:23.687Z,97234.00
2018-11-07T21:27:52.979Z,97228.00
2018-11-07T21:30:22.219Z,97238.00
2018-11-07T21:32:51.441Z,97232.00
2018-11-07T21:35:20.666Z,97234.00
2018-11-07T21:37:50.017Z,97237.00
2018-11-07T21:40:19.232Z,97252.00
2018-11-07T21:42:48.555Z,97238.00
2018-11-07T21:45:18.289Z,97238.00
2018-11-07T21:47:47.665Z,97256.00
2018-11-07T21:50:17.949Z,97246.00
2018-11-07T21:52:47.166Z,97258.00
2018-11-07T21:55:16.421Z,97255.00
2018-11-07T21:57:45.639Z,97266.00
2018-11-07T22:00:18.217Z,97263.00
2018-11-07T22:02:47.584Z,97278.00
2018-11-07T22:05:17.541Z,97279.00
2018-11-07T22:07:46.768Z,97274.00
2018-11-07T22:10:17.173Z,97276.00
2018-11-07T22:12:46.489Z,97284.00
2018-11-07T22:15:15.721Z,97268.00
2018-11-07T22:17:44.956Z,97278.00
2018-11-07T22:20:17.764Z,97290.00
2018-11-07T22:22:47.218Z,97281.00
2018-11-07T22:25:16.578Z,97280.00
2018-11-07T22:27:45.781Z,97294.00
2018-11-07T22:30:16.278Z,97298.00
2018-11-07T22:32:45.493Z,97292.00
2018-11-07T22:35:15.931Z,97285.00
2018-11-07T22:37:45.750Z,97295.00
2018-11-07T22:40:16.237Z,97297.00
2018-11-07T22:42:45.453Z,97305.00
2018-11-07T22:45:15.149Z,97299.00
2018-11-07T22:47:44.382Z,97301.00
2018-11-07T22:50:14.765Z,97296.00
2018-11-07T22:52:44.811Z,97300.00
2018-11-07T22:55:14.022Z,97308.00
2018-11-07T22:57:43.251Z,97303.00
2018-11-07T23:00:22.115Z,97307.00
2018-11-07T23:02:52.534Z,97309.00
2018-11-07T23:05:21.797Z,97310.00
2018-11-07T23:07:51.588Z,97315.00
2018-11-07T23:10:20.932Z,97340.00
2018-11-07T23:12:50.682Z,97327.00
2018-11-07T23:15:25.219Z,97323.00
2018-11-07T23:17:54.472Z,97317.00
2018-11-07T23:20:24.015Z,97330.00
2018-11-07T23:22:53.266Z,97336.00
2018-11-07T23:25:22.577Z,97338.00
2018-11-07T23:27:51.804Z,97343.00
2018-11-07T23:30:21.003Z,97340.00
2018-11-07T23:32:50.212Z,97333.00
2018-11-07T23:35:19.551Z,97338.00
2018-11-07T23:37:48.813Z,97337.00
2018-11-07T23:40:18.000Z,97336.00
2018-11-07T23:42:47.201Z,97337.00
2018-11-07T23:45:16.431Z,97333.00
2018-11-07T23:47:45.628Z,97341.00
2018-11-07T23:50:14.805Z,97351.00
2018-11-07T23:52:51.345Z,97345.00
2018-11-07T23:55:21.753Z,97354.00
2018-11-07T23:57:51.681Z,97350.00
